Time;durP1;ratioP1;P1;durP2;ratioP2;P2;SDS_P1;SDS_P2;PMS_P1;PMS_P2;Temp;Humidity;BMP_temperature;BMP_pressure;BME280_temperature;BME280_humidity;BME280_pressure;Samples;Min_cycle;Max_cycle;Signal;HPM_P1;HPM_P2
2021/04/04 00:01:29;;;;;;;5.00;1.02;;;;;13.00;102633.00;;;;5072451;28;20195;-78
2021/04/04 00:03:56;;;;;;;2.55;0.98;;;;;13.00;102635.00;;;;5089352;28;20571;-77
2021/04/04 00:06:23;;;;;;;3.30;0.90;;;;;13.00;102638.00;;;;5091125;28;20195;-78
2021/04/04 00:08:50;;;;;;;4.00;1.13;;;;;13.10;102633.00;;;;5089860;28;20210;-78
2021/04/04 00:11:17;;;;;;;2.92;0.80;;;;;13.10;102626.00;;;;5090965;28;20194;-77
2021/04/04 00:13:44;;;;;;;4.38;1.33;;;;;13.10;102629.00;;;;5089428;28;20197;-77
2021/04/04 00:16:10;;;;;;;6.32;1.13;;;;;13.00;102631.00;;;;5088615;28;20205;-77
2021/04/04 00:18:41;;;;;;;4.00;0.75;;;;;13.00;102631.00;;;;5089548;28;20222;-78
2021/04/04 00:21:08;;;;;;;3.42;1.13;;;;;13.10;102632.00;;;;5090690;28;20198;-77
2021/04/04 00:23:34;;;;;;;5.10;0.85;;;;;13.10;102633.00;;;;5089922;28;20695;-77
2021/04/04 00:26:01;;;;;;;5.05;1.17;;;;;13.10;102624.00;;;;5088341;28;20206;-78
2021/04/04 00:28:28;;;;;;;3.42;0.90;;;;;13.00;102627.00;;;;5089961;28;20217;-77
2021/04/04 00:30:55;;;;;;;2.38;0.95;;;;;13.10;102621.00;;;;5086975;28;20198;-77
2021/04/04 00:33:21;;;;;;;4.65;1.83;;;;;13.10;102627.00;;;;5085825;28;20198;-77
2021/04/04 00:35:49;;;;;;;4.00;0.98;;;;;13.10;102629.00;;;;5088699;28;20197;-77
2021/04/04 00:38:16;;;;;;;2.15;0.57;;;;;13.10;102626.00;;;;5088435;28;20226;-77
2021/04/04 00:40:44;;;;;;;5.47;1.10;;;;;13.10;102635.00;;;;5089854;28;20640;-77
2021/04/04 00:43:11;;;;;;;5.78;0.98;;;;;13.10;102628.00;;;;5088883;28;20203;-77
2021/04/04 00:45:40;;;;;;;3.40;1.00;;;;;13.10;102631.00;;;;5086612;28;20267;-76
2021/04/04 00:48:08;;;;;;;4.93;0.85;;;;;13.10;102623.00;;;;5077249;28;20600;-77
2021/04/04 00:50:37;;;;;;;5.05;1.10;;;;;13.10;102624.00;;;;5072167;28;20191;-77
2021/04/04 00:53:06;;;;;;;2.70;1.10;;;;;13.10;102622.00;;;;5076118;28;20194;-77
2021/04/04 00:55:34;;;;;;;5.10;0.95;;;;;13.10;102631.00;;;;5089691;28;20209;-77
2021/04/04 00:58:02;;;;;;;4.35;0.77;;;;;13.10;102618.00;;;;5074823;28;20586;-77
2021/04/04 01:00:32;;;;;;;4.45;1.08;;;;;13.00;102623.00;;;;5072709;28;20203;-77
2021/04/04 01:02:58;;;;;;;2.38;0.60;;;;;13.00;102613.00;;;;5084217;28;20199;-77
2021/04/04 01:05:30;;;;;;;5.32;1.15;;;;;13.00;102611.00;;;;5089453;28;20210;-77
2021/04/04 01:07:58;;;;;;;4.63;1.58;;;;;13.00;102614.00;;;;5088538;28;20205;-77
2021/04/04 01:10:27;;;;;;;5.93;1.25;;;;;13.00;102608.00;;;;5089252;28;20190;-76
2021/04/04 01:13:02;;;;;;;4.97;1.23;;;;;13.00;102608.00;;;;5080217;28;20277;-77
2021/04/04 01:15:32;;;;;;;6.15;0.80;;;;;13.00;102606.00;;;;5068803;28;20202;-77
2021/04/04 01:18:04;;;;;;;2.47;0.70;;;;;12.90;102603.00;;;;5086705;28;20194;-77
2021/04/04 01:20:39;;;;;;;2.17;0.70;;;;;12.90;102604.00;;;;5082266;28;20183;-77
2021/04/04 01:23:38;;;;;;;5.13;0.93;;;;;12.90;102604.00;;;;5088406;28;20190;-77
2021/04/04 01:26:12;;;;;;;3.17;1.02;;;;;12.90;102597.00;;;;5061818;28;20277;-77
2021/04/04 01:28:43;;;;;;;1.67;0.60;;;;;12.90;102608.00;;;;5089391;28;20224;-77
2021/04/04 01:31:11;;;;;;;3.63;1.00;;;;;12.90;102604.00;;;;5088718;28;20683;-77
2021/04/04 01:33:41;;;;;;;5.82;0.80;;;;;12.90;102602.00;;;;5082257;28;20198;-77
2021/04/04 01:36:11;;;;;;;2.20;0.85;;;;;12.90;102605.00;;;;5089402;28;20617;-77
2021/04/04 01:38:41;;;;;;;5.35;1.13;;;;;12.90;102601.00;;;;5084121;28;20218;-77
2021/04/04 01:41:13;;;;;;;2.72;1.38;;;;;12.90;102601.00;;;;5088558;28;20209;-77
2021/04/04 01:43:44;;;;;;;5.70;0.80;;;;;12.90;102598.00;;;;5089357;28;20201;-77
2021/04/04 01:46:11;;;;;;;2.35;0.75;;;;;12.90;102601.00;;;;5078956;28;20226;-77
2021/04/04 01:48:40;;;;;;;1.30;0.70;;;;;12.90;102591.00;;;;5081822;28;20218;-77
2021/04/04 01:51:08;;;;;;;2.47;0.95;;;;;12.90;102596.00;;;;5087179;28;20238;-77
2021/04/04 01:53:36;;;;;;;5.53;1.23;;;;;12.90;102595.00;;;;5069286;28;20195;-77
2021/04/04 01:56:03;;;;;;;4.80;0.98;;;;;12.90;102591.00;;;;5070928;28;20201;-77
2021/04/04 01:58:32;;;;;;;4.93;1.08;;;;;12.90;102588.00;;;;5087414;28;20229;-77
2021/04/04 02:01:00;;;;;;;3.70;0.63;;;;;13.00;102587.00;;;;5088155;28;20281;-77
2021/04/04 02:03:28;;;;;;;2.95;1.10;;;;;13.00;102583.00;;;;5087408;28;20670;-77
2021/04/04 02:05:56;;;;;;;2.65;0.75;;;;;13.00;102580.00;;;;5088173;28;20226;-77
2021/04/04 02:08:23;;;;;;;2.67;0.57;;;;;13.00;102581.00;;;;5079873;28;20206;-77
2021/04/04 02:10:51;;;;;;;3.78;1.38;;;;;13.00;102579.00;;;;5087275;28;20182;-77
2021/04/04 02:13:19;;;;;;;3.80;0.98;;;;;13.00;102575.00;;;;5087968;28;20193;-77
2021/04/04 02:15:47;;;;;;;4.90;1.17;;;;;13.00;102571.00;;;;5087235;28;20190;-77
2021/04/04 02:18:15;;;;;;;5.65;1.08;;;;;13.00;102577.00;;;;5087708;28;20202;-77
2021/04/04 02:20:43;;;;;;;3.78;0.85;;;;;13.00;102575.00;;;;5088220;28;20198;-77
2021/04/04 02:23:12;;;;;;;1.80;0.50;;;;;13.00;102567.00;;;;5088232;28;20217;-77
2021/04/04 02:25:40;;;;;;;3.83;0.77;;;;;13.00;102571.00;;;;5087955;28;20197;-77
2021/04/04 02:28:08;;;;;;;3.03;0.77;;;;;12.90;102564.00;;;;5086980;28;20193;-77
2021/04/04 02:30:35;;;;;;;3.60;0.77;;;;;12.90;102564.00;;;;5070562;28;20791;-77
2021/04/04 02:33:09;;;;;;;5.03;0.70;;;;;12.90;102564.00;;;;5077726;28;20197;-78
2021/04/04 02:35:39;;;;;;;4.80;0.70;;;;;12.90;102560.00;;;;5080811;28;20190;-77
2021/04/04 02:38:11;;;;;;;1.80;0.65;;;;;12.90;102553.00;;;;5067740;28;20236;-77
2021/04/04 02:40:41;;;;;;;1.98;0.80;;;;;12.90;102558.00;;;;5080344;28;20198;-77
2021/04/04 02:43:10;;;;;;;2.22;0.70;;;;;12.90;102550.00;;;;5086924;28;20194;-77
2021/04/04 02:45:38;;;;;;;2.63;0.55;;;;;12.90;102558.00;;;;5068827;28;20199;-77
2021/04/04 02:48:09;;;;;;;1.15;0.52;;;;;12.90;102553.00;;;;5072759;28;20225;-78
2021/04/04 02:50:38;;;;;;;4.93;1.15;;;;;12.80;102548.00;;;;5088283;28;20556;-77
2021/04/04 02:53:07;;;;;;;1.27;0.60;;;;;12.90;102553.00;;;;5086780;28;20202;-77
2021/04/04 02:55:37;;;;;;;4.53;1.23;;;;;12.80;102545.00;;;;5088014;28;20288;-77
2021/04/04 02:58:06;;;;;;;1.90;0.65;;;;;12.80;102550.00;;;;5087038;28;20213;-77
2021/04/04 03:00:34;;;;;;;2.95;0.52;;;;;12.90;102544.00;;;;5087122;28;20244;-77
2021/04/04 03:03:03;;;;;;;2.60;0.68;;;;;12.90;102540.00;;;;5075314;28;20207;-77
2021/04/04 03:05:31;;;;;;;3.58;0.80;;;;;12.90;102544.00;;;;5085666;28;20202;-77
2021/04/04 03:08:01;;;;;;;2.65;0.55;;;;;12.90;102551.00;;;;5068186;28;20234;-78
2021/04/04 03:10:29;;;;;;;3.80;0.60;;;;;12.90;102541.00;;;;5088656;28;20194;-77
2021/04/04 03:12:57;;;;;;;1.30;0.50;;;;;12.80;102548.00;;;;5088088;28;20564;-77
2021/04/04 03:15:25;;;;;;;4.90;1.02;;;;;12.80;102545.00;;;;5079535;28;20231;-77
2021/04/04 03:17:53;;;;;;;1.48;0.35;;;;;12.80;102538.00;;;;5088704;28;20271;-77
2021/04/04 03:20:21;;;;;;;2.17;0.63;;;;;12.80;102535.00;;;;5088140;28;20214;-77
2021/04/04 03:22:49;;;;;;;3.10;0.85;;;;;12.80;102540.00;;;;5087132;28;20220;-77
2021/04/04 03:25:18;;;;;;;2.05;0.50;;;;;12.80;102534.00;;;;5082205;28;20190;-77
2021/04/04 03:27:47;;;;;;;3.90;0.45;;;;;12.80;102535.00;;;;5081154;28;20219;-77
2021/04/04 03:32:57;;;;;;;3.20;0.63;;;;;12.80;102527.00;;;;5082504;28;20198;-77
2021/04/04 03:35:25;;;;;;;3.08;0.70;;;;;12.80;102523.00;;;;5071536;28;20190;-77
2021/04/04 03:37:52;;;;;;;3.83;0.63;;;;;12.80;102529.00;;;;5071354;28;20203;-77
2021/04/04 03:40:20;;;;;;;3.47;0.57;;;;;12.80;102530.00;;;;5084485;28;20292;-77
2021/04/04 03:42:49;;;;;;;3.03;0.77;;;;;12.80;102530.00;;;;5078778;28;20206;-77
2021/04/04 03:45:18;;;;;;;4.45;1.13;;;;;12.80;102524.00;;;;5091167;28;20195;-77
2021/04/04 03:47:46;;;;;;;6.40;0.73;;;;;12.80;102537.00;;;;5079846;28;20322;-77
2021/04/04 03:50:15;;;;;;;3.50;0.68;;;;;12.80;102530.00;;;;5087102;28;20256;-77
2021/04/04 03:52:42;;;;;;;2.97;0.55;;;;;12.80;102525.00;;;;5088523;28;20197;-77
2021/04/04 03:55:10;;;;;;;2.38;0.55;;;;;12.80;102526.00;;;;5070797;28;20202;-77
2021/04/04 03:57:39;;;;;;;5.93;0.90;;;;;12.80;102522.00;;;;5083565;28;20205;-77
2021/04/04 04:00:08;;;;;;;2.38;0.70;;;;;12.80;102537.00;;;;5088292;28;20264;-77
2021/04/04 04:02:37;;;;;;;5.97;0.70;;;;;12.80;102530.00;;;;5087143;28;20559;-77
2021/04/04 04:05:05;;;;;;;2.40;1.05;;;;;12.80;102526.00;;;;5090893;28;20207;-77
2021/04/04 04:07:34;;;;;;;2.63;0.32;;;;;12.80;102522.00;;;;5089268;28;20222;-77
2021/04/04 04:10:02;;;;;;;3.95;0.55;;;;;12.80;102525.00;;;;5090435;28;20342;-77
2021/04/04 04:12:29;;;;;;;2.28;0.82;;;;;12.80;102529.00;;;;5084239;28;20206;-78
2021/04/04 04:14:57;;;;;;;2.67;0.80;;;;;12.80;102534.00;;;;5080112;28;20209;-78
2021/04/04 04:17:25;;;;;;;1.40;0.52;;;;;12.80;102534.00;;;;5084444;28;20209;-77
2021/04/04 04:19:53;;;;;;;2.47;0.50;;;;;12.80;102521.00;;;;5089409;28;20213;-77
2021/04/04 04:22:20;;;;;;;2.25;0.68;;;;;12.80;102528.00;;;;5089896;28;20233;-77
2021/04/04 04:24:49;;;;;;;2.83;0.50;;;;;12.80;102520.00;;;;5089466;28;20202;-77
2021/04/04 04:27:17;;;;;;;3.83;0.60;;;;;12.80;102522.00;;;;5082722;28;20199;-77
2021/04/04 04:29:45;;;;;;;2.50;0.60;;;;;12.80;102516.00;;;;5078673;28;20642;-77
2021/04/04 04:32:14;;;;;;;1.48;0.30;;;;;12.80;102518.00;;;;5084182;28;20190;-77
2021/04/04 04:34:43;;;;;;;1.88;0.40;;;;;12.80;102516.00;;;;5089652;28;20213;-77
2021/04/04 04:37:11;;;;;;;3.33;0.47;;;;;12.80;102512.00;;;;5089985;28;20198;-77
2021/04/04 04:39:39;;;;;;;6.40;1.10;;;;;12.70;102513.00;;;;5072455;28;20222;-77
2021/04/04 04:42:09;;;;;;;2.92;0.70;;;;;12.70;102513.00;;;;5088682;28;20669;-77
2021/04/04 04:44:37;;;;;;;2.88;0.60;;;;;12.70;102516.00;;;;5089825;28;20687;-77
2021/04/04 04:47:04;;;;;;;1.48;0.40;;;;;12.70;102509.00;;;;5089229;28;20225;-77
2021/04/04 04:49:32;;;;;;;1.05;0.50;;;;;12.70;102500.00;;;;5089387;28;20226;-77
2021/04/04 04:51:58;;;;;;;3.83;1.30;;;;;12.70;102511.00;;;;5083587;28;20206;-77
2021/04/04 04:54:25;;;;;;;5.43;0.90;;;;;12.70;102498.00;;;;5073665;28;20199;-77
2021/04/04 04:56:53;;;;;;;3.42;0.90;;;;;12.70;102505.00;;;;5073069;28;20221;-77
2021/04/04 04:59:20;;;;;;;4.82;1.25;;;;;12.80;102499.00;;;;5089463;28;20611;-77
2021/04/04 05:01:50;;;;;;;1.60;0.57;;;;;12.80;102501.00;;;;5089426;28;20195;-77
2021/04/04 05:04:16;;;;;;;3.42;0.60;;;;;12.80;102502.00;;;;5089027;28;20225;-77
2021/04/04 05:06:47;;;;;;;8.18;0.75;;;;;12.70;102488.00;;;;5088369;28;20206;-77
2021/04/04 05:09:14;;;;;;;2.97;0.70;;;;;12.70;102497.00;;;;5090165;28;20198;-77
2021/04/04 05:11:43;;;;;;;3.75;0.55;;;;;12.70;102492.00;;;;5087353;28;20194;-78
2021/04/04 05:14:11;;;;;;;1.98;0.85;;;;;12.70;102492.00;;;;5085767;28;20206;-78
2021/04/04 05:16:39;;;;;;;1.48;0.90;;;;;12.70;102494.00;;;;5088533;28;20694;-78
2021/04/04 05:19:08;;;;;;;9.65;1.00;;;;;12.70;102495.00;;;;5088149;28;20602;-77
2021/04/04 05:21:36;;;;;;;4.18;1.33;;;;;12.80;102499.00;;;;5089182;28;20256;-77
2021/04/04 05:24:06;;;;;;;3.47;0.65;;;;;12.70;102501.00;;;;5087981;28;20225;-77
2021/04/04 05:26:35;;;;;;;1.83;0.50;;;;;12.70;102498.00;;;;5087552;28;20190;-78
2021/04/04 05:29:03;;;;;;;3.05;0.82;;;;;12.70;102503.00;;;;5088302;28;20559;-77
2021/04/04 05:31:31;;;;;;;2.15;0.45;;;;;12.70;102503.00;;;;5086325;28;20199;-78
2021/04/04 05:33:59;;;;;;;2.90;0.55;;;;;12.70;102495.00;;;;5087701;28;20339;-78
2021/04/04 05:36:26;;;;;;;2.10;0.73;;;;;12.70;102499.00;;;;5083716;28;20199;-77
2021/04/04 05:38:56;;;;;;;3.67;1.00;;;;;12.60;102496.00;;;;5087540;28;20225;-77
2021/04/04 05:41:25;;;;;;;1.88;0.55;;;;;12.70;102498.00;;;;5084369;28;20214;-77
2021/04/04 05:43:56;;;;;;;1.95;0.55;;;;;12.70;102507.00;;;;5086032;28;20201;-77
2021/04/04 05:46:28;;;;;;;5.65;0.77;;;;;12.70;102508.00;;;;5088118;28;20597;-77
2021/04/04 05:49:00;;;;;;;2.60;0.65;;;;;12.70;102507.00;;;;5081082;28;20755;-77
2021/04/04 05:51:54;;;;;;;1.67;0.45;;;;;12.60;102505.00;;;;5084873;28;20198;-77
2021/04/04 05:54:36;;;;;;;2.65;0.52;;;;;12.60;102505.00;;;;5077370;28;20202;-77
2021/04/04 05:57:12;;;;;;;1.55;0.65;;;;;12.60;102508.00;;;;5074710;28;20195;-77
2021/04/04 05:59:45;;;;;;;3.25;0.60;;;;;12.60;102504.00;;;;5087953;28;20225;-76
2021/04/04 06:02:57;;;;;;;3.28;0.77;;;;;12.60;102503.00;;;;5087521;28;20202;-77
2021/04/04 06:05:59;;;;;;;1.50;0.60;;;;;12.60;102512.00;;;;5064137;28;20198;-76
2021/04/04 06:08:47;;;;;;;1.20;0.45;;;;;12.60;102508.00;;;;5046454;28;20243;-76
2021/04/04 06:11:23;;;;;;;2.47;0.77;;;;;12.70;102510.00;;;;5085046;28;20672;-77
2021/04/04 06:14:00;;;;;;;1.55;0.50;;;;;12.70;102516.00;;;;5083399;28;20530;-77
2021/04/04 06:16:40;;;;;;;1.25;0.40;;;;;12.70;102513.00;;;;5087872;28;20246;-77
2021/04/04 06:19:17;;;;;;;1.00;0.30;;;;;12.70;102510.00;;;;5075115;28;20226;-77
2021/04/04 06:21:54;;;;;;;2.30;0.90;;;;;12.70;102505.00;;;;5086003;28;20206;-77
2021/04/04 06:24:32;;;;;;;3.10;0.88;;;;;12.70;102505.00;;;;5087763;28;20248;-77
2021/04/04 06:27:10;;;;;;;1.67;0.57;;;;;12.70;102507.00;;;;5077027;28;20205;-77
2021/04/04 06:30:00;;;;;;;3.00;0.60;;;;;12.70;102505.00;;;;5087151;28;20285;-77
2021/04/04 06:32:34;;;;;;;2.38;0.88;;;;;12.80;102510.00;;;;5086347;28;20209;-77
2021/04/04 06:35:04;;;;;;;1.98;0.50;;;;;12.80;102505.00;;;;5086193;28;20651;-77
2021/04/04 06:37:58;;;;;;;1.35;0.80;;;;;12.70;102503.00;;;;5081876;28;20214;-77
2021/04/04 06:40:36;;;;;;;1.27;0.85;;;;;12.70;102499.00;;;;5083497;28;20358;-77
2021/04/04 06:43:07;;;;;;;2.42;0.55;;;;;12.70;102505.00;;;;5079939;28;20992;-77
2021/04/04 06:45:44;;;;;;;1.25;0.60;;;;;12.70;102511.00;;;;5092249;28;20198;-76
2021/04/04 06:48:44;;;;;;;3.53;0.77;;;;;12.70;102513.00;;;;5090823;28;20242;-77
2021/04/04 06:51:19;;;;;;;1.13;0.57;;;;;12.70;102505.00;;;;5085340;28;20204;-77
2021/04/04 06:54:04;;;;;;;1.27;0.52;;;;;12.70;102512.00;;;;5090541;28;20194;-77
2021/04/04 06:56:41;;;;;;;3.00;0.75;;;;;12.80;102519.00;;;;5089564;28;20194;-78
2021/04/04 06:59:16;;;;;;;3.55;1.10;;;;;12.80;102514.00;;;;5090909;28;20304;-78
2021/04/04 07:01:58;;;;;;;2.22;0.45;;;;;12.70;102507.00;;;;5076836;28;20254;-77
2021/04/04 07:04:32;;;;;;;1.90;0.55;;;;;12.70;102508.00;;;;5086310;28;20206;-77
2021/04/04 07:07:23;;;;;;;2.22;0.55;;;;;12.70;102513.00;;;;5084650;28;20202;-77
2021/04/04 07:10:05;;;;;;;1.08;0.70;;;;;12.80;102502.00;;;;5086726;28;20906;-77
2021/04/04 07:13:06;;;;;;;0.80;0.40;;;;;12.80;102504.00;;;;5088526;28;20201;-77
2021/04/04 07:15:42;;;;;;;1.65;0.65;;;;;12.80;102505.00;;;;5084492;28;20248;-77
2021/04/04 07:18:35;;;;;;;0.55;0.40;;;;;12.80;102499.00;;;;5091082;28;20198;-77
2021/04/04 07:21:17;;;;;;;0.77;0.30;;;;;12.90;102496.00;;;;5090300;28;20206;-77
2021/04/04 07:23:55;;;;;;;3.53;0.95;;;;;12.90;102497.00;;;;5076198;28;20199;-77
2021/04/04 07:26:36;;;;;;;0.55;0.40;;;;;12.90;102497.00;;;;5082320;28;20205;-77
2021/04/04 07:29:24;;;;;;;2.38;0.93;;;;;12.90;102496.00;;;;5087826;28;20206;-77
2021/04/04 07:31:59;;;;;;;2.08;0.90;;;;;13.00;102490.00;;;;5091099;28;20204;-77
2021/04/04 07:34:38;;;;;;;1.10;0.77;;;;;13.00;102486.00;;;;5081763;28;20191;-77
2021/04/04 07:37:14;;;;;;;1.10;0.52;;;;;13.00;102485.00;;;;5088775;28;20202;-77
2021/04/04 07:39:45;;;;;;;2.20;0.70;;;;;13.10;102485.00;;;;5087475;28;20218;-77
2021/04/04 07:42:21;;;;;;;1.80;0.70;;;;;13.00;102492.00;;;;5083965;28;20227;-77
2021/04/04 07:44:53;;;;;;;3.50;0.90;;;;;13.10;102492.00;;;;5081316;28;20198;-77
2021/04/04 07:47:25;;;;;;;1.98;0.80;;;;;13.10;102487.00;;;;5083782;28;20588;-77
2021/04/04 07:49:58;;;;;;;2.05;0.73;;;;;13.10;102487.00;;;;5084106;28;20190;-77
2021/04/04 07:52:27;;;;;;;3.00;0.88;;;;;13.10;102494.00;;;;5088048;28;20187;-79
2021/04/04 07:55:04;;;;;;;1.42;0.80;;;;;13.10;102485.00;;;;5072339;28;20203;-79
2021/04/04 07:57:42;;;;;;;1.00;0.77;;;;;13.10;102501.00;;;;5087766;28;20190;-78
2021/04/04 08:00:11;;;;;;;3.90;1.02;;;;;13.10;102494.00;;;;5085971;28;20222;-79
2021/04/04 08:02:45;;;;;;;1.02;0.50;;;;;13.10;102499.00;;;;5090364;28;20664;-79
2021/04/04 08:05:19;;;;;;;5.93;1.30;;;;;13.10;102497.00;;;;5089119;28;20209;-75
2021/04/04 08:07:52;;;;;;;2.13;0.80;;;;;13.10;102495.00;;;;5081440;28;20198;-75
2021/04/04 08:10:26;;;;;;;1.23;0.80;;;;;13.10;102491.00;;;;5078813;28;20194;-76
2021/04/04 08:13:01;;;;;;;3.00;0.57;;;;;13.20;102497.00;;;;5089605;28;20209;-77
2021/04/04 08:15:34;;;;;;;2.58;0.90;;;;;13.20;102489.00;;;;5089595;28;20243;-76
2021/04/04 08:18:01;;;;;;;0.82;0.65;;;;;13.30;102489.00;;;;5089092;28;20213;-76
2021/04/04 08:20:34;;;;;;;1.92;0.75;;;;;13.30;102486.00;;;;5089991;28;20256;-76
2021/04/04 08:23:04;;;;;;;4.13;0.65;;;;;13.30;102493.00;;;;5080687;28;20692;-76
2021/04/04 08:25:38;;;;;;;2.33;0.82;;;;;13.30;102495.00;;;;5069960;28;20210;-76
2021/04/04 08:28:12;;;;;;;0.77;0.55;;;;;13.30;102490.00;;;;5069228;28;20730;-75
2021/04/04 08:30:44;;;;;;;1.17;0.80;;;;;13.30;102495.00;;;;5080263;28;20234;-75
2021/04/04 08:33:15;;;;;;;1.85;0.80;;;;;13.30;102494.00;;;;5089733;28;20189;-78
2021/04/04 08:35:46;;;;;;;1.60;0.80;;;;;13.30;102496.00;;;;5084503;28;20198;-77
2021/04/04 08:38:17;;;;;;;0.93;0.45;;;;;13.30;102487.00;;;;5084225;28;20198;-78
2021/04/04 08:40:45;;;;;;;1.77;0.88;;;;;13.30;102491.00;;;;5087954;28;20226;-76
2021/04/04 08:43:14;;;;;;;2.75;1.42;;;;;13.30;102495.00;;;;5071660;28;20281;-77
2021/04/04 08:45:48;;;;;;;2.88;0.68;;;;;13.30;102487.00;;;;5087913;28;20221;-77
2021/04/04 08:48:16;;;;;;;3.13;1.00;;;;;13.30;102491.00;;;;5070470;28;20261;-76
2021/04/04 08:50:46;;;;;;;1.08;0.82;;;;;13.30;102486.00;;;;5085511;28;20195;-77
2021/04/04 08:53:25;;;;;;;3.22;1.33;;;;;13.20;102477.00;;;;5087685;28;20191;-76
2021/04/04 08:55:52;;;;;;;1.30;0.85;;;;;13.30;102478.00;;;;5084696;28;20292;-76
2021/04/04 08:58:24;;;;;;;1.75;1.08;;;;;13.30;102475.00;;;;5083519;28;20213;-76
2021/04/04 09:00:56;;;;;;;1.80;0.80;;;;;13.30;102474.00;;;;5083497;28;20221;-77
2021/04/04 09:03:25;;;;;;;6.40;1.10;;;;;13.30;102475.00;;;;5083921;28;20698;-77
2021/04/04 09:06:01;;;;;;;3.80;1.50;;;;;13.20;102471.00;;;;5082368;28;20194;-76
2021/04/04 09:08:28;;;;;;;3.78;1.33;;;;;13.30;102482.00;;;;5081913;28;20216;-77
2021/04/04 09:10:55;;;;;;;4.10;1.33;;;;;13.30;102474.00;;;;5082677;28;20209;-77
2021/04/04 09:13:23;;;;;;;3.33;1.23;;;;;13.30;102486.00;;;;5082340;28;20199;-77
2021/04/04 09:15:53;;;;;;;3.60;1.20;;;;;13.30;102471.00;;;;5082638;28;20302;-77
2021/04/04 09:18:21;;;;;;;1.17;0.68;;;;;13.40;102478.00;;;;5081856;28;20210;-77
2021/04/04 09:20:50;;;;;;;5.10;1.27;;;;;13.40;102472.00;;;;5086138;28;20595;-77
2021/04/04 09:23:21;;;;;;;3.67;1.23;;;;;13.40;102471.00;;;;5085880;28;20194;-76
2021/04/04 09:25:51;;;;;;;3.50;1.20;;;;;13.50;102461.00;;;;5082049;28;20198;-75
2021/04/04 09:28:18;;;;;;;2.05;1.27;;;;;13.50;102470.00;;;;5088409;28;20225;-76
2021/04/04 09:30:46;;;;;;;2.70;1.33;;;;;13.50;102466.00;;;;5086359;28;20195;-75
2021/04/04 09:33:15;;;;;;;3.92;1.27;;;;;13.60;102466.00;;;;5087863;28;20201;-76
2021/04/04 09:35:43;;;;;;;3.38;1.08;;;;;13.60;102469.00;;;;5087671;28;20198;-76
2021/04/04 09:38:12;;;;;;;1.63;1.05;;;;;13.70;102481.00;;;;5088530;28;20202;-78
2021/04/04 09:40:42;;;;;;;4.68;1.50;;;;;13.70;102466.00;;;;5088126;28;20222;-78
2021/04/04 09:43:11;;;;;;;2.58;1.02;;;;;13.80;102460.00;;;;5087742;28;20199;-78
2021/04/04 09:45:39;;;;;;;5.10;1.80;;;;;13.80;102457.00;;;;5088316;28;20382;-78
2021/04/04 09:48:19;;;;;;;2.10;1.20;;;;;13.80;102467.00;;;;5087554;28;20234;-78
2021/04/04 09:50:47;;;;;;;4.72;1.08;;;;;13.90;102470.00;;;;5088642;28;20206;-78
2021/04/04 09:53:34;;;;;;;4.85;1.30;;;;;14.00;102470.00;;;;5088757;28;20204;-78
2021/04/04 09:56:09;;;;;;;3.17;1.08;;;;;14.10;102456.00;;;;5088655;28;20205;-78
2021/04/04 09:58:39;;;;;;;3.00;1.00;;;;;14.20;102455.00;;;;5087972;28;20202;-77
2021/04/04 10:01:15;;;;;;;2.90;1.20;;;;;14.30;102450.00;;;;5087705;28;20759;-78
2021/04/04 10:03:42;;;;;;;2.03;0.90;;;;;14.40;102445.00;;;;5088629;28;20651;-78
2021/04/04 10:06:13;;;;;;;2.03;1.35;;;;;14.50;102446.00;;;;5088540;28;20281;-77
2021/04/04 10:08:53;;;;;;;3.08;1.40;;;;;14.60;102440.00;;;;5088677;28;20202;-78
2021/04/04 10:11:21;;;;;;;3.05;1.70;;;;;14.70;102443.00;;;;5068836;28;20691;-78
2021/04/04 10:13:48;;;;;;;3.47;1.75;;;;;14.80;102428.00;;;;5076133;28;20201;-78
2021/04/04 10:16:20;;;;;;;3.22;1.35;;;;;14.80;102427.00;;;;5088132;28;20648;-78
2021/04/04 10:19:06;;;;;;;3.50;1.40;;;;;14.80;102433.00;;;;5088123;28;20202;-78
2021/04/04 10:21:36;;;;;;;4.25;1.85;;;;;14.90;102425.00;;;;5088546;28;20202;-77
2021/04/04 10:24:25;;;;;;;2.08;1.33;;;;;14.90;102427.00;;;;5087465;28;20197;-78
2021/04/04 10:27:22;;;;;;;2.28;0.98;;;;;15.00;102426.00;;;;5088036;28;20206;-78
2021/04/04 10:30:04;;;;;;;4.32;1.10;;;;;15.10;102429.00;;;;5087981;28;20291;-78
2021/04/04 10:32:31;;;;;;;3.95;1.70;;;;;15.10;102423.00;;;;5087487;28;20194;-78
2021/04/04 10:34:58;;;;;;;2.55;1.17;;;;;15.20;102420.00;;;;5075930;28;20212;-78
2021/04/04 10:37:28;;;;;;;2.75;1.40;;;;;15.20;102416.00;;;;5088573;28;20213;-78
2021/04/04 10:39:59;;;;;;;2.28;1.42;;;;;15.30;102415.00;;;;5077108;28;20230;-78
2021/04/04 10:42:27;;;;;;;3.22;1.75;;;;;15.30;102418.00;;;;5068222;28;20572;-78
2021/04/04 10:45:08;;;;;;;4.32;1.85;;;;;15.20;102407.00;;;;5068192;28;20199;-78
2021/04/04 10:47:35;;;;;;;2.97;1.50;;;;;15.30;102405.00;;;;5068230;28;20219;-78
2021/04/04 10:50:03;;;;;;;4.13;2.08;;;;;15.40;102398.00;;;;5067840;28;20194;-78
2021/04/04 10:52:31;;;;;;;4.00;1.48;;;;;15.40;102388.00;;;;5068211;28;20217;-78
2021/04/04 10:55:00;;;;;;;7.18;2.60;;;;;15.40;102397.00;;;;5079368;28;20210;-78
2021/04/04 10:57:28;;;;;;;3.72;1.42;;;;;15.40;102391.00;;;;5087998;28;20213;-79
2021/04/04 10:59:56;;;;;;;3.88;2.08;;;;;15.40;102385.00;;;;5087910;28;20229;-79
2021/04/04 11:02:24;;;;;;;3.55;1.80;;;;;15.40;102385.00;;;;5088147;28;20271;-78
2021/04/04 11:04:52;;;;;;;2.60;1.40;;;;;15.40;102384.00;;;;5087746;28;20201;-78
2021/04/04 11:07:19;;;;;;;4.47;2.35;;;;;15.40;102377.00;;;;5087030;28;20198;-78
2021/04/04 11:09:46;;;;;;;2.80;1.65;;;;;15.40;102370.00;;;;5076961;28;20641;-79
2021/04/04 11:12:14;;;;;;;1.95;1.30;;;;;15.40;102368.00;;;;5082455;28;20206;-79
2021/04/04 11:14:45;;;;;;;3.08;1.50;;;;;15.50;102369.00;;;;5086972;28;20672;-79
2021/04/04 11:17:16;;;;;;;4.75;1.83;;;;;15.50;102357.00;;;;5088288;28;20256;-79
2021/04/04 11:19:45;;;;;;;4.50;2.13;;;;;15.60;102350.00;;;;5087341;28;20222;-78
2021/04/04 11:22:15;;;;;;;2.65;1.65;;;;;15.60;102350.00;;;;5087004;28;20201;-78
2021/04/04 11:24:56;;;;;;;2.78;1.90;;;;;15.50;102350.00;;;;5087837;28;20259;-79
2021/04/04 11:27:37;;;;;;;4.80;2.28;;;;;15.50;102347.00;;;;5087528;28;20198;-79
2021/04/04 11:30:06;;;;;;;2.70;1.70;;;;;15.60;102336.00;;;;5088773;28;20650;-78
2021/04/04 11:32:33;;;;;;;5.05;2.45;;;;;15.70;102337.00;;;;5089132;28;20556;-78
2021/04/04 11:35:01;;;;;;;4.80;2.85;;;;;15.70;102333.00;;;;5091024;28;20198;-78
2021/04/04 11:37:40;;;;;;;5.30;3.17;;;;;15.60;102327.00;;;;5090885;28;20518;-78
2021/04/04 11:40:17;;;;;;;4.88;3.03;;;;;15.70;102332.00;;;;5090336;28;20354;-78
2021/04/04 11:42:45;;;;;;;3.88;2.92;;;;;15.80;102328.00;;;;5091033;28;20293;-78
2021/04/04 11:45:13;;;;;;;7.88;3.55;;;;;15.80;102320.00;;;;5090236;28;20263;-79
2021/04/04 11:47:41;;;;;;;5.38;3.90;;;;;15.80;102320.00;;;;5090292;28;20679;-79
2021/04/04 11:50:24;;;;;;;5.78;4.25;;;;;15.80;102320.00;;;;5089139;28;20236;-79
2021/04/04 11:52:51;;;;;;;6.15;3.38;;;;;15.80;102318.00;;;;5070367;28;20207;-79
2021/04/04 11:55:19;;;;;;;11.32;4.13;;;;;15.80;102314.00;;;;5070334;28;20201;-79
2021/04/04 11:57:47;;;;;;;4.93;3.42;;;;;15.80;102312.00;;;;5069562;28;20225;-78
2021/04/04 12:00:18;;;;;;;7.28;3.13;;;;;15.70;102306.00;;;;5070150;28;20284;-79
2021/04/04 12:02:52;;;;;;;5.82;3.72;;;;;15.70;102310.00;;;;5080427;28;20213;-79
2021/04/04 12:05:19;;;;;;;6.43;4.03;;;;;15.80;102306.00;;;;5089225;28;20844;-79
2021/04/04 12:07:48;;;;;;;4.13;2.88;;;;;15.80;102308.00;;;;5090014;28;20207;-79
2021/04/04 12:10:17;;;;;;;4.95;3.47;;;;;15.80;102308.00;;;;5072662;28;20202;-78
2021/04/04 12:12:44;;;;;;;5.97;3.28;;;;;15.90;102315.00;;;;5069560;28;20668;-78
2021/04/04 12:15:12;;;;;;;3.78;3.20;;;;;15.90;102302.00;;;;5089950;28;20201;-79
2021/04/04 12:17:44;;;;;;;5.28;3.22;;;;;16.00;102303.00;;;;5089089;28;20194;-79
2021/04/04 12:20:11;;;;;;;4.43;3.00;;;;;16.00;102292.00;;;;5090082;28;20226;-79
2021/04/04 12:22:40;;;;;;;13.35;2.80;;;;;16.10;102284.00;;;;5089860;28;20651;-79
2021/04/04 12:25:09;;;;;;;4.85;2.92;;;;;16.10;102291.00;;;;5089492;28;20213;-79
2021/04/04 12:27:39;;;;;;;5.93;3.40;;;;;16.20;102289.00;;;;5089664;28;20205;-79
2021/04/04 12:30:14;;;;;;;5.80;3.53;;;;;16.30;102274.00;;;;5089633;28;20647;-79
2021/04/04 12:32:42;;;;;;;5.28;3.10;;;;;16.30;102264.00;;;;5078780;28;20687;-79